Time;durP1;ratioP1;P1;durP2;ratioP2;P2;SDS_P1;SDS_P2;PMS_P1;PMS_P2;Temp;Humidity;BMP_temperature;BMP_pressure;BME280_temperature;BME280_humidity;BME280_pressure;Samples;Min_cycle;Max_cycle;Signal;HPM_P1;HPM_P2
2022/10/07 15:31:52;;;;;;;7.50;3.10;;;;;;;19.87;63.47;101257.36;115297;1199;543757;-59
2022/10/07 15:34:20;;;;;;;5.60;2.40;;;;;;;21.02;60.12;101257.98;117048;1189;23448;-59
2022/10/07 15:36:47;;;;;;;6.30;2.80;;;;;;;21.41;59.03;101259.16;117018;1186;22626;-59
2022/10/07 15:39:15;;;;;;;6.30;2.80;;;;;;;21.62;58.44;101257.57;117036;1192;23452;-58
2022/10/07 15:41:42;;;;;;;6.60;2.80;;;;;;;21.76;58.02;101255.70;116987;1186;23465;-58
2022/10/07 15:44:17;;;;;;;5.00;2.80;;;;;;;21.90;57.68;101253.81;116795;1189;23445;-58
2022/10/07 15:46:47;;;;;;;7.30;2.80;;;;;;;22.02;57.35;101257.20;116726;1189;23451;-58
2022/10/07 15:49:17;;;;;;;5.00;2.70;;;;;;;22.09;57.01;101260.81;116911;1186;23444;-58
2022/10/07 15:51:47;;;;;;;10.70;3.20;;;;;;;22.17;56.82;101260.27;116949;1189;23561;-58
2022/10/07 16:00:20;;;;;;;5.30;3.30;;;;;;;20.73;56.99;101282.75;115703;1201;543716;-87
2022/10/07 16:02:47;;;;;;;6.00;3.50;;;;;;;21.15;53.36;101278.86;117124;1190;21923;-93
2022/10/07 16:05:17;;;;;;;8.30;4.70;;;;;;;20.71;52.86;101285.45;117199;1191;21886;-95
2022/10/07 16:07:46;;;;;;;6.60;3.80;;;;;;;20.30;52.97;101289.36;117468;1192;22597;-94
2022/10/07 16:10:13;;;;;;;8.40;4.90;;;;;;;19.96;53.06;101290.63;118679;1189;21870;-96
2022/10/07 16:12:41;;;;;;;8.00;4.70;;;;;;;19.68;53.04;101293.03;117966;1191;23475;-89
2022/10/07 16:15:10;;;;;;;12.30;7.50;;;;;;;19.55;52.85;101295.11;116966;1191;23519;-89
2022/10/07 16:17:37;;;;;;;13.00;6.40;;;;;;;19.35;52.72;101297.75;117116;1189;23449;-89
2022/10/07 16:20:05;;;;;;;12.70;8.00;;;;;;;19.09;52.90;101298.44;117037;1191;21861;-90
2022/10/07 16:22:37;;;;;;;12.50;7.80;;;;;;;18.89;53.06;101301.90;117227;1188;22517;-89
2022/10/07 16:25:04;;;;;;;15.40;8.10;;;;;;;18.72;52.97;101298.89;117262;1189;23608;-89
2022/10/07 16:30:39;;;;;;;15.10;7.90;;;;;;;18.38;53.06;101299.92;116921;1192;22165;-90
2022/10/07 16:33:07;;;;;;;15.30;7.10;;;;;;;18.19;53.14;101299.77;116891;1192;23472;-92
2022/10/07 16:35:35;;;;;;;10.50;6.90;;;;;;;18.08;53.14;101304.91;116860;1189;21874;-90
2022/10/07 16:38:03;;;;;;;11.00;6.30;;;;;;;17.98;53.25;101306.41;116939;1192;21884;-91
2022/10/07 16:40:31;;;;;;;10.10;5.60;;;;;;;17.95;53.00;101305.76;116773;1191;23958;-91
2022/10/07 16:42:58;;;;;;;12.10;6.90;;;;;;;17.89;53.05;101303.46;116929;1191;21975;-91
2022/10/07 16:45:25;;;;;;;12.30;6.20;;;;;;;17.80;53.04;101307.60;116897;1191;22231;-91
2022/10/07 16:47:55;;;;;;;14.60;7.40;;;;;;;17.76;53.02;101309.14;116880;1191;23556;-89
2022/10/07 16:50:22;;;;;;;10.80;6.40;;;;;;;17.72;52.86;101310.48;116980;1191;21999;-89
2022/10/07 16:52:49;;;;;;;13.40;5.90;;;;;;;17.65;52.83;101308.71;116873;1192;22998;-90
2022/10/07 16:55:17;;;;;;;9.80;6.00;;;;;;;17.57;52.82;101311.08;116841;1191;23464;-89
2022/10/07 16:57:46;;;;;;;12.30;6.20;;;;;;;17.57;52.54;101311.05;116914;1191;23483;-90
2022/10/07 17:00:14;;;;;;;14.50;6.10;;;;;;;17.52;52.66;101310.65;116941;1191;23012;-90
2022/10/07 17:02:41;;;;;;;9.40;6.50;;;;;;;17.41;52.85;101311.48;116869;1188;22621;-90
2022/10/07 17:05:09;;;;;;;11.20;6.00;;;;;;;17.36;52.86;101307.17;116982;1190;21949;-89
2022/10/07 17:07:37;;;;;;;10.10;5.50;;;;;;;17.31;52.81;101310.67;117038;1191;23469;-88
2022/10/07 17:10:06;;;;;;;11.00;5.90;;;;;;;17.27;53.01;101313.24;117162;1190;21886;-88
2022/10/07 17:12:36;;;;;;;11.40;6.50;;;;;;;17.26;52.80;101310.08;116816;1190;23554;-89
2022/10/07 17:15:04;;;;;;;11.70;5.70;;;;;;;17.23;52.83;101312.83;117129;1190;22111;-89
2022/10/07 17:17:32;;;;;;;12.50;5.10;;;;;;;17.14;52.77;101312.88;116909;1191;21996;-88
2022/10/07 17:19:59;;;;;;;14.90;6.50;;;;;;;17.04;52.88;101310.47;116917;1191;23650;-90
2022/10/07 17:22:26;;;;;;;9.20;5.10;;;;;;;16.98;52.99;101309.20;117076;1191;23579;-89
2022/10/07 17:24:53;;;;;;;8.70;5.20;;;;;;;16.96;53.04;101310.11;116956;1191;22637;-90
2022/10/07 17:27:21;;;;;;;8.70;4.40;;;;;;;16.94;52.96;101311.20;116980;1192;23549;-89
2022/10/07 17:29:48;;;;;;;6.80;4.30;;;;;;;16.91;53.00;101316.75;116960;1191;22928;-90
2022/10/07 17:32:15;;;;;;;12.20;5.20;;;;;;;16.90;52.87;101313.23;116991;1191;23592;-89
2022/10/07 17:34:43;;;;;;;10.80;5.40;;;;;;;16.83;52.94;101315.70;116953;1191;23614;-89
2022/10/07 17:37:11;;;;;;;9.10;5.50;;;;;;;16.82;52.78;101316.27;116969;1187;23461;-90
2022/10/07 17:39:38;;;;;;;12.30;5.10;;;;;;;16.81;52.76;101316.45;116913;1191;23451;-88
2022/10/07 17:42:06;;;;;;;9.70;5.70;;;;;;;16.74;52.78;101315.02;116936;1192;21875;-89
2022/10/07 17:44:33;;;;;;;9.80;5.90;;;;;;;16.70;52.75;101314.23;116959;1188;21864;-89
2022/10/07 17:47:02;;;;;;;11.40;5.90;;;;;;;16.65;52.74;101318.41;116808;1194;24159;-88
2022/10/07 17:49:31;;;;;;;9.50;5.80;;;;;;;16.62;52.88;101318.11;117008;1192;24158;-88
2022/10/07 17:51:58;;;;;;;13.80;6.00;;;;;;;16.51;53.00;101321.39;116922;1191;23454;-88
2022/10/07 17:54:26;;;;;;;9.60;5.50;;;;;;;16.42;53.17;101318.05;116857;1191;23449;-89
2022/10/07 17:56:53;;;;;;;8.00;5.20;;;;;;;16.42;53.06;101320.00;116962;1191;21870;-88
2022/10/07 17:59:22;;;;;;;10.10;6.00;;;;;;;16.40;53.17;101316.48;116961;1191;23900;-89
2022/10/07 18:01:50;;;;;;;9.00;5.40;;;;;;;16.34;53.15;101313.59;116973;1192;22831;-88
2022/10/07 18:04:17;;;;;;;11.60;5.80;;;;;;;16.29;53.17;101316.02;116962;1189;21898;-91
2022/10/07 18:06:51;;;;;;;11.70;6.10;;;;;;;16.27;53.17;101311.98;116953;1191;23482;-90
2022/10/07 18:09:21;;;;;;;12.00;6.10;;;;;;;16.26;53.09;101313.79;117028;1192;23513;-90
2022/10/07 18:17:23;;;;;;;10.10;5.90;;;;;;;16.24;52.96;101316.83;117182;1189;21883;-90
2022/10/07 18:19:50;;;;;;;9.30;5.60;;;;;;;16.22;53.07;101315.09;117142;1189;22975;-90
2022/10/07 18:22:18;;;;;;;8.90;5.50;;;;;;;16.16;53.16;101316.98;117115;1189;23448;-89
2022/10/07 18:24:45;;;;;;;11.80;6.30;;;;;;;16.11;53.26;101321.70;117113;1189;23459;-89
2022/10/07 18:27:12;;;;;;;12.00;6.10;;;;;;;16.14;53.15;101316.85;117154;1189;22701;-89
2022/10/07 18:29:40;;;;;;;13.00;6.00;;;;;;;16.13;53.09;101317.94;117013;1191;23475;-89
2022/10/07 18:32:07;;;;;;;11.90;6.20;;;;;;;16.09;53.21;101323.69;116970;1190;22935;-90
2022/10/07 18:34:34;;;;;;;14.30;6.80;;;;;;;16.08;53.13;101319.46;116871;1191;22082;-91
2022/10/07 18:37:02;;;;;;;11.30;6.20;;;;;;;16.04;53.22;101322.20;116973;1190;23461;-90
2022/10/07 18:39:30;;;;;;;11.50;7.00;;;;;;;16.01;53.29;101325.61;116957;1191;23448;-91
2022/10/07 18:41:58;;;;;;;11.20;5.50;;;;;;;16.00;53.37;101327.23;117169;1189;21871;-90
2022/10/07 18:44:26;;;;;;;11.20;7.10;;;;;;;16.06;53.35;101326.75;117113;1188;24162;-89
2022/10/07 18:46:53;;;;;;;11.90;6.30;;;;;;;16.10;53.20;101326.50;117215;1189;24152;-90
2022/10/07 18:49:23;;;;;;;13.60;6.90;;;;;;;16.11;53.12;101328.43;117212;1188;23549;-92
2022/10/07 18:51:51;;;;;;;10.70;6.50;;;;;;;16.12;53.05;101329.30;116991;1191;23490;-91
2022/10/07 18:54:18;;;;;;;13.90;6.90;;;;;;;16.06;53.13;101326.95;117132;1187;22931;-90
2022/10/07 18:56:46;;;;;;;11.00;6.60;;;;;;;15.98;53.25;101329.22;116966;1191;23557;-89
2022/10/07 18:59:13;;;;;;;12.60;6.60;;;;;;;15.92;53.34;101324.18;116931;1191;21861;-89
2022/10/07 19:01:40;;;;;;;12.90;6.20;;;;;;;15.86;53.27;101323.77;116904;1192;22922;-89
2022/10/07 19:04:12;;;;;;;12.10;6.90;;;;;;;15.84;53.28;101324.33;117191;1189;23495;-90
2022/10/07 19:06:44;;;;;;;12.90;7.20;;;;;;;15.66;53.58;101323.58;117136;1188;23471;-89
2022/10/07 19:09:18;;;;;;;10.10;7.00;;;;;;;15.57;53.84;101327.82;117150;1189;23457;-87
2022/10/07 19:11:46;;;;;;;14.40;7.30;;;;;;;15.53;53.92;101326.29;117203;1189;21873;-89
2022/10/07 19:14:14;;;;;;;14.00;6.80;;;;;;;15.64;53.59;101326.64;116971;1191;23452;-89
2022/10/07 19:16:47;;;;;;;10.50;7.00;;;;;;;15.59;53.67;101327.42;117241;1188;23495;-87
2022/10/07 19:19:20;;;;;;;10.20;6.20;;;;;;;15.59;53.64;101327.08;117234;1188;23442;-88
2022/10/07 19:21:50;;;;;;;10.20;5.90;;;;;;;15.57;53.70;101332.06;117202;1189;21878;-88
2022/10/07 19:24:18;;;;;;;10.40;6.40;;;;;;;15.54;53.67;101336.00;117255;1189;21877;-90
2022/10/07 19:26:47;;;;;;;11.50;6.80;;;;;;;15.56;53.69;101335.09;117130;1191;21960;-89
2022/10/07 19:29:18;;;;;;;12.30;7.30;;;;;;;15.61;53.46;101332.53;116926;1191;23474;-88
2022/10/07 19:31:47;;;;;;;14.00;6.40;;;;;;;15.57;53.51;101334.71;117039;1191;23448;-89
2022/10/07 19:34:20;;;;;;;9.10;5.70;;;;;;;15.56;53.57;101333.85;117212;1189;23589;-90
2022/10/07 19:36:48;;;;;;;13.40;7.70;;;;;;;15.53;53.57;101335.85;117196;1188;21876;-90
2022/10/07 19:39:17;;;;;;;13.20;6.70;;;;;;;15.53;53.59;101334.96;117126;1189;22918;-90
2022/10/07 19:41:45;;;;;;;12.10;7.20;;;;;;;15.50;53.63;101336.42;117239;1189;21852;-89
2022/10/07 19:44:12;;;;;;;14.00;6.90;;;;;;;15.46;53.75;101341.28;117260;1188;23512;-88
2022/10/07 19:46:40;;;;;;;13.80;7.10;;;;;;;15.44;53.67;101340.27;116972;1191;21904;-91
2022/10/07 19:49:09;;;;;;;16.40;6.70;;;;;;;15.39;53.76;101343.69;117067;1192;23540;-90
2022/10/07 19:51:36;;;;;;;11.80;5.70;;;;;;;15.37;53.75;101341.96;116918;1191;22942;-89
2022/10/07 19:54:08;;;;;;;13.10;6.20;;;;;;;15.37;53.81;101345.33;116966;1191;21861;-89
2022/10/07 19:56:38;;;;;;;9.70;6.00;;;;;;;15.34;53.87;101343.77;117084;1190;23534;-91
2022/10/07 19:59:10;;;;;;;9.40;5.90;;;;;;;15.34;53.72;101342.88;117071;1190;21888;-90
2022/10/07 20:01:42;;;;;;;13.90;5.70;;;;;;;15.33;53.77;101342.57;116999;1191;23603;-90
2022/10/07 20:04:14;;;;;;;9.00;5.00;;;;;;;15.33;53.62;101343.61;117092;1189;21940;-90
2022/10/07 20:06:41;;;;;;;9.30;5.60;;;;;;;15.32;53.62;101342.21;117152;1189;23561;-89
2022/10/07 20:09:11;;;;;;;6.10;4.40;;;;;;;15.38;53.53;101345.48;116977;1189;21864;-85
2022/10/07 20:11:52;;;;;;;6.30;4.20;;;;;;;15.35;53.52;101348.36;117150;1186;21864;-90
2022/10/07 20:14:19;;;;;;;6.70;4.30;;;;;;;15.36;53.57;101350.81;117003;1191;22853;-89
2022/10/07 20:16:45;;;;;;;8.30;4.00;;;;;;;15.38;53.47;101352.20;117088;1191;21880;-89
2022/10/07 20:19:15;;;;;;;5.50;3.70;;;;;;;15.35;53.46;101347.84;117134;1189;23545;-89
2022/10/07 20:21:43;;;;;;;10.00;5.00;;;;;;;15.33;53.44;101352.98;116976;1190;23448;-90
2022/10/07 20:24:13;;;;;;;5.40;3.90;;;;;;;15.34;53.36;101355.10;116994;1188;23472;-89
2022/10/07 20:26:41;;;;;;;7.70;4.00;;;;;;;15.21;53.53;101357.95;117153;1189;23566;-89
2022/10/07 20:29:12;;;;;;;6.50;4.10;;;;;;;15.23;53.48;101358.63;117162;1189;23493;-90
2022/10/07 20:31:40;;;;;;;7.50;4.40;;;;;;;15.20;53.35;101355.31;117033;1192;21847;-90
2022/10/07 20:34:11;;;;;;;9.20;5.00;;;;;;;15.20;53.30;101354.80;117142;1189;23472;-90
2022/10/07 20:36:40;;;;;;;7.50;4.40;;;;;;;15.18;53.24;101355.19;117274;1189;21872;-89
2022/10/07 20:44:46;;;;;;;7.60;4.30;;;;;;;15.17;53.29;101357.30;117244;1183;22918;-90
2022/10/07 20:47:13;;;;;;;6.50;3.90;;;;;;;15.12;53.23;101361.98;117225;1188;23549;-90
2022/10/07 20:49:41;;;;;;;8.10;4.90;;;;;;;15.13;53.16;101365.51;117237;1189;22976;-89
2022/10/07 20:52:10;;;;;;;6.90;3.70;;;;;;;15.17;53.08;101361.73;117251;1188;21893;-89
2022/10/07 20:54:37;;;;;;;5.60;3.70;;;;;;;15.12;53.09;101365.34;117496;1182;21861;-91
2022/10/07 20:57:06;;;;;;;6.10;4.30;;;;;;;15.11;53.29;101362.52;117276;1189;23542;-89
2022/10/07 20:59:35;;;;;;;9.90;4.10;;;;;;;15.07;53.32;101367.02;117261;1188;23471;-91
2022/10/07 21:02:05;;;;;;;9.60;4.20;;;;;;;15.12;53.17;101366.40;117333;1189;21866;-91
2022/10/07 21:04:35;;;;;;;6.90;4.20;;;;;;;15.11;53.29;101368.36;117373;1187;21944;-91
2022/10/07 21:07:03;;;;;;;5.90;3.40;;;;;;;15.08;53.10;101367.34;117226;1189;23523;-90
2022/10/07 21:09:35;;;;;;;9.90;4.50;;;;;;;15.08;53.22;101368.05;117697;1186;23503;-90
2022/10/07 21:12:06;;;;;;;5.70;3.40;;;;;;;15.03;53.33;101364.77;117684;1185;23441;-89
2022/10/07 21:14:35;;;;;;;8.30;3.80;;;;;;;15.01;53.39;101370.80;117445;1186;23472;-90
2022/10/07 21:17:04;;;;;;;5.70;3.50;;;;;;;15.02;53.29;101366.91;117701;1184;23604;-90
2022/10/07 21:19:31;;;;;;;7.30;4.10;;;;;;;15.05;53.19;101368.80;117564;1184;21864;-90
2022/10/07 21:21:58;;;;;;;7.10;3.80;;;;;;;15.02;53.14;101362.31;117750;1183;21859;-90
2022/10/07 21:24:25;;;;;;;6.70;3.40;;;;;;;15.00;53.19;101362.88;117555;1185;23643;-90
2022/10/07 21:26:52;;;;;;;7.80;4.20;;;;;;;14.97;53.20;101360.80;117639;1184;21863;-90
2022/10/07 21:29:19;;;;;;;5.60;3.90;;;;;;;14.94;53.39;101359.60;117654;1184;23455;-89
2022/10/07 21:31:46;;;;;;;7.20;4.20;;;;;;;14.92;53.23;101360.69;117670;1184;22918;-90
2022/10/07 21:34:13;;;;;;;11.20;4.60;;;;;;;14.92;53.21;101359.45;117723;1186;21854;-90
2022/10/07 21:36:44;;;;;;;6.30;3.30;;;;;;;14.87;53.26;101360.05;117718;1185;23493;-90
2022/10/07 21:39:18;;;;;;;6.30;4.60;;;;;;;14.81;53.33;101360.48;117790;1185;23888;-90
2022/10/07 21:41:46;;;;;;;9.90;3.40;;;;;;;14.73;53.41;101362.02;117469;1185;21877;-91
2022/10/07 21:44:13;;;;;;;5.80;3.30;;;;;;;14.69;53.68;101357.83;117596;1185;22891;-90
2022/10/07 21:46:46;;;;;;;7.30;4.00;;;;;;;14.67;53.55;101359.41;117565;1184;21854;-90
2022/10/07 21:49:13;;;;;;;8.10;4.10;;;;;;;14.64;53.60;101357.70;117622;1185;21855;-91
2022/10/07 21:51:41;;;;;;;9.30;3.80;;;;;;;14.64;53.67;101355.92;117269;1185;23471;-91
2022/10/07 21:54:12;;;;;;;6.20;3.80;;;;;;;14.71;53.76;101361.17;117604;1185;23538;-88
2022/10/07 21:56:42;;;;;;;9.40;4.00;;;;;;;14.78;53.60;101358.08;117557;1186;22269;-88
2022/10/07 21:59:09;;;;;;;6.00;3.50;;;;;;;14.72;53.81;101359.20;117720;1183;23376;-91
2022/10/07 22:01:41;;;;;;;4.70;2.90;;;;;;;14.62;53.89;101356.84;117761;1185;23486;-88
2022/10/07 22:04:15;;;;;;;6.80;3.50;;;;;;;14.62;53.86;101355.43;117802;1183;23535;-90
2022/10/07 22:09:29;;;;;;;5.40;3.20;;;;;;;14.58;53.89;101358.12;117801;1184;23435;-91
2022/10/07 22:11:56;;;;;;;7.60;3.70;;;;;;;14.58;53.83;101360.42;117660;1185;21854;-89
2022/10/07 22:14:23;;;;;;;7.20;3.10;;;;;;;14.56;53.85;101358.52;117796;1184;21848;-89
2022/10/07 22:16:54;;;;;;;6.50;3.10;;;;;;;14.56;53.91;101359.94;117703;1184;23484;-89
2022/10/07 22:19:21;;;;;;;13.00;3.30;;;;;;;14.54;53.87;101359.23;117861;1183;23635;-89
2022/10/07 22:21:48;;;;;;;7.60;3.60;;;;;;;14.56;53.90;101358.34;117684;1184;23573;-89
2022/10/07 22:24:15;;;;;;;5.80;3.30;;;;;;;14.57;53.86;101359.20;117836;1184;21863;-89
2022/10/07 22:26:46;;;;;;;5.00;3.10;;;;;;;14.56;53.98;101359.23;117832;1182;21895;-88
2022/10/07 22:29:15;;;;;;;7.80;3.60;;;;;;;14.56;53.86;101357.27;117873;1182;23445;-89
2022/10/07 22:31:42;;;;;;;7.00;3.70;;;;;;;14.55;53.95;101362.05;117759;1186;21898;-89
2022/10/07 22:35:26;;;;;;;8.80;3.70;;;;;;;14.53;53.78;101362.98;117807;1186;21877;-88
2022/10/07 22:36:59;;;;;;;6.60;3.30;;;;;;;14.52;53.95;101361.92;117855;1184;21855;-89
2022/10/07 22:39:27;;;;;;;11.00;3.40;;;;;;;14.47;53.89;101365.70;117926;1182;22915;-88
2022/10/07 22:41:55;;;;;;;5.60;3.30;;;;;;;14.46;53.97;101362.53;117874;1183;21861;-88
2022/10/07 22:44:22;;;;;;;7.80;3.90;;;;;;;14.47;54.09;101361.63;117675;1186;21850;-88
2022/10/07 22:46:49;;;;;;;6.90;3.40;;;;;;;14.47;54.14;101360.73;117658;1185;23477;-88
2022/10/07 22:49:16;;;;;;;8.80;3.70;;;;;;;14.44;54.32;101357.08;117804;1182;23469;-88
2022/10/07 22:51:44;;;;;;;5.60;3.40;;;;;;;14.43;54.35;101356.54;117742;1183;23468;-88
2022/10/07 22:54:11;;;;;;;6.10;3.30;;;;;;;14.45;54.22;101356.89;117585;1185;21863;-88
2022/10/07 22:56:39;;;;;;;6.20;3.90;;;;;;;14.47;54.20;101354.20;117563;1185;21864;-87
2022/10/07 22:59:07;;;;;;;6.30;3.40;;;;;;;14.49;54.19;101354.54;117405;1185;22216;-88
2022/10/07 23:01:35;;;;;;;6.80;3.30;;;;;;;14.50;54.09;101349.59;117599;1184;23469;-88
2022/10/07 23:04:03;;;;;;;8.50;3.70;;;;;;;14.51;54.12;101350.81;117314;1187;23450;-88
2022/10/07 23:06:33;;;;;;;6.70;3.70;;;;;;;14.53;54.14;101348.49;117220;1188;23449;-88
2022/10/07 23:09:01;;;;;;;6.90;3.80;;;;;;;14.51;54.10;101349.39;117310;1187;22921;-89
2022/10/07 23:11:28;;;;;;;7.20;3.60;;;;;;;14.51;54.08;101345.67;117249;1188;21863;-89
2022/10/07 23:13:56;;;;;;;7.50;4.00;;;;;;;14.51;54.02;101348.52;117007;1190;23525;-90
2022/10/07 23:16:25;;;;;;;9.40;3.50;;;;;;;14.49;54.12;101348.70;117219;1188;23449;-89
2022/10/07 23:18:53;;;;;;;7.10;3.60;;;;;;;14.47;54.23;101342.91;117259;1188;22915;-89
2022/10/07 23:21:24;;;;;;;8.10;3.70;;;;;;;14.46;54.10;101340.97;117265;1187;23452;-90
2022/10/07 23:23:58;;;;;;;6.30;3.90;;;;;;;14.44;53.98;101338.88;117217;1189;23522;-91
2022/10/07 23:26:33;;;;;;;8.30;4.00;;;;;;;14.38;54.09;101344.78;117218;1187;23489;-91
2022/10/07 23:29:00;;;;;;;9.60;4.10;;;;;;;14.41;54.01;101342.45;117247;1188;23489;-91
2022/10/07 23:31:29;;;;;;;7.60;3.80;;;;;;;14.43;54.01;101344.01;116971;1190;24184;-90
2022/10/07 23:33:56;;;;;;;8.20;4.30;;;;;;;14.41;54.02;101340.86;117578;1185;24232;-90
2022/10/07 23:36:24;;;;;;;7.50;3.80;;;;;;;14.38;54.06;101336.13;117335;1186;23641;-89
2022/10/07 23:38:51;;;;;;;8.30;3.80;;;;;;;14.34;53.89;101337.08;117452;1186;23008;-90
2022/10/07 23:41:23;;;;;;;12.30;4.40;;;;;;;14.31;53.88;101335.17;117336;1188;23576;-90
2022/10/07 23:43:50;;;;;;;8.50;4.00;;;;;;;14.27;53.93;101333.46;117329;1186;23551;-90
2022/10/07 23:46:18;;;;;;;7.40;4.20;;;;;;;14.22;53.96;101330.15;117181;1187;23486;-90
2022/10/07 23:48:45;;;;;;;7.40;4.30;;;;;;;14.13;54.24;101334.51;117377;1186;22903;-89
2022/10/07 23:51:14;;;;;;;5.90;4.00;;;;;;;14.08;54.18;101333.50;117214;1188;23453;-89
2022/10/07 23:53:42;;;;;;;4.90;3.50;;;;;;;14.03;54.24;101331.08;117330;1186;24484;-89
2022/10/07 23:56:11;;;;;;;7.80;3.90;;;;;;;14.01;54.40;101329.88;117211;1186;23473;-89
2022/10/07 23:58:39;;;;;;;9.60;4.00;;;;;;;14.01;54.31;101328.46;117204;1187;23532;-88
